createdAt,value
2023-05-22T00:07:40.480Z,48.77
2023-05-22T00:17:42.222Z,48.90
2023-05-22T00:27:43.702Z,49.19
2023-05-22T00:37:46.159Z,49.30
2023-05-22T00:47:47.800Z,49.34
2023-05-22T00:57:50.221Z,49.29
2023-05-22T01:07:51.668Z,49.49
2023-05-22T01:17:59.427Z,49.48
2023-05-22T01:28:37.924Z,50.11
2023-05-22T01:38:39.328Z,50.09
2023-05-22T01:48:40.754Z,51.15
2023-05-22T01:58:46.379Z,49.47
2023-05-22T02:08:47.950Z,50.13
2023-05-22T02:18:49.578Z,51.00
2023-05-22T02:28:51.034Z,50.10
2023-05-22T02:38:52.746Z,50.37
2023-05-22T02:48:54.180Z,50.53
2023-05-22T02:58:56.867Z,50.83
2023-05-22T03:08:58.299Z,50.76
2023-05-22T03:19:12.226Z,51.81
2023-05-22T03:29:13.767Z,51.25
2023-05-22T03:39:15.252Z,51.38
2023-05-22T03:49:16.660Z,51.17
2023-05-22T03:59:18.132Z,50.77
2023-05-22T04:09:19.741Z,51.30
2023-05-22T04:19:21.747Z,51.53
2023-05-22T04:29:24.234Z,51.59
2023-05-22T04:39:26.102Z,51.51
2023-05-22T04:49:28.537Z,51.48
2023-05-22T04:59:37.774Z,51.87
2023-05-22T05:09:39.223Z,52.19
2023-05-22T05:19:40.833Z,52.32
2023-05-22T05:29:42.485Z,54.11
2023-05-22T05:39:43.905Z,54.63
2023-05-22T05:49:45.646Z,54.12
2023-05-22T05:59:47.145Z,53.04
2023-05-22T06:09:48.734Z,52.48
2023-05-22T06:19:50.316Z,52.47
2023-05-22T06:29:51.918Z,50.98
2023-05-22T06:39:53.354Z,50.75
2023-05-22T06:49:54.776Z,51.54
2023-05-22T06:59:56.193Z,50.57
2023-05-22T07:09:57.613Z,50.63
2023-05-22T07:19:59.046Z,50.90
2023-05-22T07:30:00.483Z,49.06
2023-05-22T07:40:03.210Z,49.27
2023-05-22T07:50:05.166Z,50.15
2023-05-22T08:00:13.556Z,51.10
2023-05-22T08:10:17.274Z,50.23
2023-05-22T08:20:18.799Z,49.63
2023-05-22T08:30:20.485Z,49.96
2023-05-22T08:40:21.906Z,50.42
2023-05-22T08:50:24.424Z,50.07
2023-05-22T09:00:25.905Z,50.93
2023-05-22T09:10:27.532Z,50.50
2023-05-22T09:20:28.959Z,49.67
2023-05-22T09:30:30.398Z,49.87
2023-05-22T09:40:34.661Z,49.76
2023-05-22T09:50:36.686Z,49.72
2023-05-22T10:00:38.879Z,51.20
2023-05-22T10:10:41.204Z,49.78
2023-05-22T10:20:43.263Z,49.70
2023-05-22T10:30:55.502Z,49.32
2023-05-22T10:40:56.928Z,48.85
2023-05-22T10:50:59.993Z,49.10
2023-05-22T11:01:10.811Z,48.91
2023-05-22T11:11:12.512Z,48.22
2023-05-22T11:21:14.037Z,48.57
2023-05-22T11:31:15.644Z,47.53
2023-05-22T11:41:17.252Z,47.68
2023-05-22T11:51:21.502Z,47.55
2023-05-22T12:01:22.922Z,46.53
2023-05-22T12:11:26.116Z,46.66
2023-05-22T12:21:27.755Z,46.12
2023-05-22T12:31:39.462Z,46.89
2023-05-22T12:41:40.909Z,46.66
2023-05-22T12:51:42.461Z,46.85
2023-05-22T13:01:43.935Z,46.92
2023-05-22T13:11:45.473Z,47.54
2023-05-22T13:21:47.268Z,47.33
2023-05-22T13:31:48.746Z,47.49
2023-05-22T13:41:52.401Z,47.64
2023-05-22T13:51:53.818Z,47.45
2023-05-22T14:01:55.271Z,47.47
2023-05-22T14:11:57.755Z,47.32
2023-05-22T14:21:59.322Z,47.33
2023-05-22T14:32:04.239Z,47.48
2023-05-22T14:42:05.845Z,47.96
2023-05-22T14:52:07.422Z,47.26
2023-05-22T15:02:09.073Z,47.63
2023-05-22T15:12:10.564Z,47.59
2023-05-22T15:22:19.255Z,47.61
2023-05-22T15:32:21.486Z,47.35
2023-05-22T15:42:22.903Z,47.67
2023-05-22T15:52:24.713Z,47.69
2023-05-22T16:02:26.887Z,47.57
2023-05-22T16:12:28.437Z,47.69
2023-05-22T16:22:46.722Z,47.66
2023-05-22T16:32:49.818Z,47.98
2023-05-22T16:42:51.610Z,47.92
2023-05-22T16:52:53.098Z,47.73
2023-05-22T17:02:55.692Z,48.08
2023-05-22T17:12:57.230Z,47.94
2023-05-22T17:22:58.660Z,47.81
2023-05-22T17:33:00.373Z,47.75
2023-05-22T17:43:03.166Z,47.74
2023-05-22T17:53:04.604Z,47.84
2023-05-22T18:03:06.987Z,48.39
2023-05-22T18:13:08.713Z,48.21
2023-05-22T18:23:10.160Z,48.67
2023-05-22T18:33:14.242Z,48.91
2023-05-22T18:43:15.838Z,49.27
2023-05-22T18:53:17.447Z,49.20
2023-05-22T19:03:19.416Z,48.94
2023-05-22T19:13:20.840Z,49.57
2023-05-22T19:23:22.284Z,49.67
2023-05-22T19:33:25.594Z,49.86
2023-05-22T19:43:27.058Z,50.20
2023-05-22T19:53:28.725Z,50.09
2023-05-22T20:03:30.305Z,50.08
2023-05-22T20:13:31.844Z,50.37
2023-05-22T20:23:33.267Z,49.93
2023-05-22T20:33:34.786Z,50.26
2023-05-22T20:43:36.484Z,50.59
2023-05-22T20:53:37.917Z,50.95
2023-05-22T21:03:39.571Z,52.42
2023-05-22T21:13:41.039Z,51.72
2023-05-22T21:23:43.282Z,51.04
2023-05-22T21:33:45.170Z,50.97
2023-05-22T21:43:47.394Z,51.04
2023-05-22T21:53:49.011Z,50.96
2023-05-22T22:03:50.567Z,50.99
2023-05-22T22:13:52.180Z,51.23
2023-05-22T22:23:54.094Z,51.48
2023-05-22T22:33:55.949Z,51.33
2023-05-22T22:43:57.367Z,51.40
2023-05-22T22:53:58.887Z,51.60
2023-05-22T23:04:00.611Z,51.48
2023-05-22T23:14:03.699Z,51.31
2023-05-22T23:24:05.336Z,51.50
2023-05-22T23:34:06.760Z,51.36
2023-05-22T23:44:08.191Z,51.55
2023-05-22T23:54:09.658Z,51.73
